createdAt,value
2018-05-04T00:02:08.926Z,2.33
2018-05-04T00:04:35.079Z,2.80
2018-05-04T00:07:01.223Z,2.23
2018-05-04T00:09:27.370Z,2.80
2018-05-04T00:11:53.550Z,2.50
2018-05-04T00:14:19.730Z,2.27
2018-05-04T00:16:45.933Z,2.43
2018-05-04T00:19:12.840Z,3.00
2018-05-04T00:21:38.983Z,3.00
2018-05-04T00:24:05.167Z,2.60
2018-05-04T00:26:31.346Z,2.50
2018-05-04T00:28:57.537Z,2.50
2018-05-04T00:31:23.717Z,2.30
2018-05-04T00:33:49.921Z,2.70
2018-05-04T00:36:16.074Z,2.27
2018-05-04T00:38:42.239Z,2.47
2018-05-04T00:43:34.126Z,2.30
2018-05-04T00:46:00.279Z,2.63
2018-05-04T00:48:26.455Z,2.53
2018-05-04T00:50:52.621Z,2.60
2018-05-04T00:53:18.825Z,2.50
2018-05-04T00:55:45.717Z,2.20
2018-05-04T00:58:12.591Z,2.50
2018-05-04T01:00:38.845Z,2.80
2018-05-04T01:03:06.549Z,2.60
2018-05-04T01:05:32.707Z,2.50
2018-05-04T01:07:58.899Z,2.60
2018-05-04T01:13:17.873Z,2.23
2018-05-04T01:15:44.049Z,2.97
2018-05-04T01:18:10.223Z,2.10
2018-05-04T01:20:36.392Z,2.63
2018-05-04T01:23:02.606Z,2.83
2018-05-04T01:25:28.750Z,2.80
2018-05-04T01:27:54.915Z,2.47
2018-05-04T01:30:21.073Z,2.70
2018-05-04T01:32:47.965Z,3.00
2018-05-04T01:35:14.103Z,2.90
2018-05-04T01:37:40.250Z,2.73
2018-05-04T01:40:06.411Z,2.53
2018-05-04T01:42:32.575Z,2.73
2018-05-04T01:44:58.735Z,2.53
2018-05-04T01:47:24.879Z,2.20
2018-05-04T01:49:51.018Z,2.57
2018-05-04T01:52:17.159Z,2.67
2018-05-04T01:54:43.315Z,2.60
2018-05-04T01:57:09.447Z,2.43
2018-05-04T01:59:35.614Z,2.27
2018-05-04T02:02:01.793Z,2.33
2018-05-04T02:04:27.964Z,2.73
2018-05-04T02:06:54.115Z,2.80
2018-05-04T02:09:20.272Z,2.00
2018-05-04T02:11:46.422Z,2.50
2018-05-04T02:14:12.587Z,2.67
2018-05-04T02:16:38.818Z,2.80
2018-05-04T02:19:05.041Z,2.57
2018-05-04T02:21:31.948Z,2.40
2018-05-04T02:23:58.144Z,2.37
2018-05-04T02:26:24.322Z,2.70
2018-05-04T02:28:50.504Z,2.53
2018-05-04T02:31:17.403Z,2.20
2018-05-04T02:33:43.646Z,2.43
2018-05-04T02:36:09.812Z,2.80
2018-05-04T02:38:36.735Z,3.27
2018-05-04T02:41:02.897Z,2.50
2018-05-04T02:43:29.042Z,2.50
2018-05-04T02:45:55.238Z,2.47
2018-05-04T02:48:21.387Z,2.70
2018-05-04T02:50:48.282Z,2.60
2018-05-04T02:53:14.431Z,2.90
2018-05-04T02:55:40.582Z,3.20
2018-05-04T02:58:06.735Z,2.77
2018-05-04T03:00:33.636Z,3.23
2018-05-04T03:02:59.786Z,2.87
2018-05-04T03:05:26.023Z,2.80
2018-05-04T03:07:52.181Z,3.00
2018-05-04T03:10:18.363Z,3.23
2018-05-04T03:12:44.515Z,3.13
2018-05-04T03:15:10.683Z,2.97
2018-05-04T03:17:36.863Z,3.33
2018-05-04T03:20:03.095Z,2.70
2018-05-04T03:22:29.277Z,3.13
2018-05-04T03:24:55.436Z,3.20
2018-05-04T03:27:21.622Z,3.03
2018-05-04T03:29:47.787Z,3.40
2018-05-04T03:32:13.939Z,3.40
2018-05-04T03:34:40.082Z,3.60
2018-05-04T03:37:06.229Z,3.30
2018-05-04T03:39:32.380Z,3.27
2018-05-04T03:41:58.551Z,3.23
2018-05-04T03:44:24.705Z,3.43
2018-05-04T03:46:50.887Z,2.97
2018-05-04T03:49:17.084Z,3.27
2018-05-04T03:51:43.221Z,3.00
2018-05-04T03:54:09.404Z,3.00
2018-05-04T03:56:36.302Z,3.00
2018-05-04T04:02:40.899Z,2.90
2018-05-04T04:05:07.043Z,2.90
2018-05-04T04:07:33.175Z,3.00
2018-05-04T04:09:59.346Z,3.17
2018-05-04T04:12:25.505Z,3.10
2018-05-04T04:14:51.649Z,2.90
2018-05-04T04:17:17.817Z,2.77
2018-05-04T04:19:43.975Z,2.83
2018-05-04T04:22:10.898Z,3.30
2018-05-04T04:24:37.103Z,3.20
2018-05-04T04:27:03.286Z,2.90
2018-05-04T04:29:29.476Z,3.50
2018-05-04T04:31:55.651Z,3.30
2018-05-04T04:34:22.556Z,3.27
2018-05-04T04:36:48.702Z,2.80
2018-05-04T04:39:14.862Z,2.90
2018-05-04T04:41:41.031Z,2.70
2018-05-04T04:44:07.166Z,3.03
2018-05-04T04:46:33.314Z,2.77
2018-05-04T04:48:59.455Z,3.93
2018-05-04T04:51:25.634Z,3.20
2018-05-04T04:53:52.547Z,3.63
2018-05-04T04:56:18.686Z,3.67
2018-05-04T04:58:44.850Z,3.93
2018-05-04T05:01:11.003Z,3.40
2018-05-04T05:03:37.151Z,3.10
2018-05-04T05:06:03.376Z,3.20
2018-05-04T05:08:29.570Z,3.10
2018-05-04T05:10:55.740Z,3.07
2018-05-04T05:13:21.899Z,3.10
2018-05-04T05:15:48.040Z,3.40
2018-05-04T05:18:14.179Z,3.30
2018-05-04T05:20:40.343Z,3.40
2018-05-04T05:23:06.525Z,3.47
2018-05-04T05:25:32.705Z,3.17
2018-05-04T05:27:59.611Z,3.13
2018-05-04T05:30:25.802Z,3.70
2018-05-04T05:32:51.968Z,2.87
2018-05-04T05:35:18.134Z,3.30
2018-05-04T05:37:44.291Z,3.30
2018-05-04T05:40:11.179Z,3.17
2018-05-04T05:42:37.381Z,3.20
2018-05-04T05:45:03.563Z,3.13
2018-05-04T05:47:29.767Z,3.77
2018-05-04T05:49:55.911Z,3.03
2018-05-04T05:52:22.052Z,3.40
2018-05-04T05:54:48.225Z,4.03
2018-05-04T05:57:15.113Z,4.17
2018-05-04T05:59:41.265Z,3.70
2018-05-04T06:02:07.422Z,3.70
2018-05-04T06:04:33.572Z,3.83
2018-05-04T06:07:00.474Z,3.43
2018-05-04T06:09:26.688Z,3.70
2018-05-04T06:11:52.821Z,3.63
2018-05-04T06:14:18.990Z,3.53
2018-05-04T06:16:45.163Z,4.20
2018-05-04T06:19:12.062Z,3.70
2018-05-04T06:21:38.217Z,3.93
2018-05-04T06:24:04.410Z,3.87
2018-05-04T06:26:30.599Z,3.53
2018-05-04T06:28:57.544Z,3.60
2018-05-04T06:31:23.702Z,3.60
2018-05-04T06:33:49.931Z,3.20
2018-05-04T06:36:16.854Z,3.30
2018-05-04T06:38:43.069Z,3.70
2018-05-04T06:41:09.238Z,3.77
2018-05-04T06:43:36.146Z,3.90
2018-05-04T06:46:02.314Z,3.33
2018-05-04T06:48:43.499Z,3.23
2018-05-04T06:51:09.712Z,3.50
2018-05-04T06:53:35.886Z,3.50
2018-05-04T06:56:02.070Z,3.50
2018-05-04T06:58:28.239Z,3.60
2018-05-04T07:00:54.458Z,3.47
2018-05-04T07:03:20.660Z,3.53
2018-05-04T07:05:46.881Z,3.43
2018-05-04T07:08:13.034Z,3.47
2018-05-04T07:10:39.212Z,3.10
2018-05-04T07:13:05.395Z,3.40
2018-05-04T07:15:31.564Z,3.77
2018-05-04T07:17:57.776Z,3.60
2018-05-04T07:20:23.951Z,3.60
2018-05-04T07:22:50.152Z,3.93
2018-05-04T07:25:16.319Z,3.43
2018-05-04T07:27:42.525Z,4.13
2018-05-04T07:30:08.696Z,4.00
2018-05-04T07:32:34.836Z,4.30
2018-05-04T07:35:00.999Z,3.80
2018-05-04T07:37:27.168Z,4.10
2018-05-04T07:39:53.344Z,3.60
2018-05-04T07:42:19.495Z,4.10
2018-05-04T07:44:45.657Z,3.80
2018-05-04T07:47:12.533Z,3.97
2018-05-04T07:49:38.750Z,3.97
2018-05-04T07:52:04.919Z,4.20
2018-05-04T07:54:31.101Z,4.20
2018-05-04T07:56:57.266Z,3.97
2018-05-04T07:59:23.445Z,3.47
2018-05-04T08:01:49.591Z,3.90
2018-05-04T08:04:15.747Z,3.70
2018-05-04T08:06:41.943Z,3.93
2018-05-04T08:09:08.846Z,3.43
2018-05-04T08:11:34.994Z,4.13
2018-05-04T08:14:01.151Z,3.50
2018-05-04T08:16:28.822Z,4.20
2018-05-04T08:18:54.977Z,4.00
2018-05-04T08:21:21.137Z,3.93
2018-05-04T08:23:47.299Z,3.73
2018-05-04T08:26:13.450Z,4.13
2018-05-04T08:28:40.359Z,4.53
2018-05-04T08:31:06.537Z,4.07
2018-05-04T08:33:33.443Z,4.47
2018-05-04T08:35:59.636Z,3.83
2018-05-04T08:38:25.851Z,4.00
2018-05-04T08:40:52.108Z,3.60
2018-05-04T08:43:18.146Z,4.07
2018-05-04T08:45:44.287Z,4.20
2018-05-04T08:48:10.436Z,4.03
2018-05-04T08:50:36.609Z,4.13
2018-05-04T08:53:03.528Z,4.40
2018-05-04T08:55:29.749Z,4.00
2018-05-04T08:57:55.945Z,4.53
2018-05-04T09:00:22.139Z,4.10
2018-05-04T09:02:48.283Z,3.80
2018-05-04T09:05:14.540Z,4.10
2018-05-04T09:07:40.667Z,3.90
2018-05-04T09:10:06.854Z,4.37
2018-05-04T09:12:33.780Z,4.20
2018-05-04T09:14:59.944Z,4.33
2018-05-04T09:17:26.096Z,4.07
2018-05-04T09:19:52.351Z,4.20
2018-05-04T09:22:18.462Z,4.33
2018-05-04T09:24:45.375Z,4.70
2018-05-04T09:27:11.533Z,4.20
2018-05-04T09:29:37.708Z,4.40
2018-05-04T09:32:03.904Z,4.77
2018-05-04T09:34:30.674Z,4.17
2018-05-04T09:36:56.875Z,4.67
2018-05-04T09:39:23.141Z,4.17
2018-05-04T09:41:49.279Z,4.73
2018-05-04T09:44:15.454Z,4.20
2018-05-04T09:46:41.631Z,4.73
2018-05-04T09:49:08.581Z,4.63
2018-05-04T09:51:34.704Z,4.57
2018-05-04T09:54:00.890Z,4.80
2018-05-04T09:56:27.158Z,4.70
2018-05-04T09:58:53.286Z,4.93
2018-05-04T10:01:20.221Z,4.47
2018-05-04T10:03:46.419Z,5.17
2018-05-04T10:06:12.681Z,5.07
2018-05-04T10:08:38.836Z,5.67
2018-05-04T10:11:05.009Z,5.20
2018-05-04T10:13:31.170Z,4.50
2018-05-04T10:15:57.379Z,4.87
2018-05-04T10:18:23.607Z,5.10
2018-05-04T10:20:49.775Z,5.00
2018-05-04T10:23:15.979Z,4.93
2018-05-04T10:25:42.138Z,6.20
2018-05-04T10:28:08.331Z,5.10
2018-05-04T10:30:35.214Z,6.23
2018-05-04T10:33:01.459Z,5.77
2018-05-04T10:35:27.633Z,5.37
2018-05-04T10:37:54.511Z,5.17
2018-05-04T10:40:20.668Z,5.87
2018-05-04T10:42:46.827Z,5.27
2018-05-04T10:45:13.045Z,6.00
2018-05-04T10:47:39.199Z,5.00
2018-05-04T10:50:05.364Z,5.50
2018-05-04T10:52:31.525Z,5.90
2018-05-04T10:54:57.680Z,5.13
2018-05-04T10:57:23.862Z,5.60
2018-05-04T10:59:50.045Z,5.47
2018-05-04T11:02:16.241Z,6.23
2018-05-04T11:04:42.428Z,5.50
2018-05-04T11:07:09.352Z,5.50
2018-05-04T11:09:35.526Z,5.87
2018-05-04T11:12:01.720Z,5.10
2018-05-04T11:14:27.864Z,5.50
2018-05-04T11:16:53.994Z,5.60
2018-05-04T11:19:20.186Z,5.60
2018-05-04T11:21:46.336Z,5.33
2018-05-04T11:24:12.488Z,5.50
2018-05-04T11:26:38.643Z,5.07
2018-05-04T11:29:05.557Z,5.93
2018-05-04T11:31:31.808Z,5.90
2018-05-04T11:33:57.950Z,5.87
2018-05-04T11:36:24.123Z,6.03
2018-05-04T11:38:50.356Z,5.67
2018-05-04T11:41:16.489Z,5.53
2018-05-04T11:43:42.651Z,5.77
2018-05-04T11:46:08.827Z,5.37
2018-05-04T11:48:35.723Z,5.50
2018-05-04T11:51:01.896Z,5.53
2018-05-04T11:53:28.079Z,5.95
2018-05-04T11:55:54.227Z,6.40
2018-05-04T11:58:20.392Z,5.80
2018-05-04T12:00:46.544Z,4.87
2018-05-04T12:03:13.440Z,4.93
2018-05-04T12:05:39.619Z,5.20
2018-05-04T12:08:05.777Z,5.90
2018-05-04T12:10:31.938Z,5.78
2018-05-04T12:12:58.124Z,5.57
2018-05-04T12:15:25.043Z,6.05
2018-05-04T12:17:51.218Z,5.15
2018-05-04T12:20:17.415Z,5.70
2018-05-04T12:22:43.626Z,4.95
2018-05-04T12:25:10.470Z,5.90
2018-05-04T12:27:36.732Z,5.15
2018-05-04T12:30:02.907Z,5.25
2018-05-04T12:32:29.091Z,4.97
2018-05-04T12:34:55.284Z,5.53
2018-05-04T12:37:21.431Z,5.00
2018-05-04T12:39:47.643Z,4.85
2018-05-04T12:42:13.797Z,5.95
2018-05-04T12:44:39.926Z,5.45
2018-05-04T12:47:06.194Z,5.20
2018-05-04T12:49:32.570Z,5.37
2018-05-04T12:51:58.901Z,5.40
2018-05-04T12:54:25.060Z,5.18
2018-05-04T12:56:51.296Z,5.47
2018-05-04T12:59:17.457Z,4.85
2018-05-04T13:01:43.615Z,5.18
2018-05-04T13:04:09.762Z,4.90
2018-05-04T13:06:35.907Z,5.05
2018-05-04T13:09:02.181Z,4.78
2018-05-04T13:11:29.110Z,5.62
2018-05-04T13:13:55.281Z,5.80
2018-05-04T13:16:21.448Z,5.00
2018-05-04T13:18:47.611Z,4.70
2018-05-04T13:21:13.795Z,5.15
2018-05-04T13:23:40.678Z,5.45
2018-05-04T13:26:06.859Z,4.93
2018-05-04T13:28:33.077Z,5.20
2018-05-04T13:30:59.239Z,4.37
2018-05-04T13:33:26.145Z,5.03
2018-05-04T13:35:52.361Z,4.72
2018-05-04T13:38:18.520Z,4.15
2018-05-04T13:40:44.685Z,4.78
2018-05-04T13:43:11.616Z,5.28
2018-05-04T13:45:37.787Z,5.03
2018-05-04T13:48:03.939Z,4.93
2018-05-04T13:50:30.101Z,5.28
2018-05-04T13:52:56.292Z,4.45
2018-05-04T13:55:22.467Z,5.22
2018-05-04T13:57:48.657Z,5.60
2018-05-04T14:00:14.841Z,4.90
2018-05-04T14:02:41.022Z,4.62
2018-05-04T14:05:07.236Z,4.72
2018-05-04T14:07:34.140Z,4.43
2018-05-04T14:10:00.294Z,4.87
2018-05-04T14:12:26.469Z,5.07
2018-05-04T14:14:52.695Z,5.47
2018-05-04T14:17:18.866Z,4.43
2018-05-04T14:19:45.068Z,4.05
2018-05-04T14:22:11.276Z,4.12
2018-05-04T14:24:37.496Z,4.07
2018-05-04T14:27:04.493Z,4.97
2018-05-04T14:29:30.687Z,4.78
2018-05-04T14:31:57.588Z,4.35
2018-05-04T14:34:23.788Z,4.05
2018-05-04T14:36:50.049Z,4.37
2018-05-04T14:39:16.231Z,11.98
2018-05-04T14:41:42.445Z,4.05
2018-05-04T14:44:08.627Z,4.40
2018-05-04T14:46:34.861Z,4.87
2018-05-04T14:49:01.013Z,4.22
2018-05-04T14:51:27.213Z,4.10
2018-05-04T14:53:53.355Z,3.80
2018-05-04T14:56:19.554Z,4.05
2018-05-04T14:58:45.903Z,4.10
2018-05-04T15:01:12.150Z,3.92
2018-05-04T15:03:38.319Z,4.00
2018-05-04T15:06:04.553Z,4.37
2018-05-04T15:08:30.752Z,4.32
2018-05-04T15:10:57.696Z,4.20
2018-05-04T15:13:24.638Z,3.72
2018-05-04T15:15:50.852Z,3.95
2018-05-04T15:18:17.094Z,3.72
2018-05-04T15:20:43.314Z,3.97
2018-05-04T15:23:09.553Z,4.60
2018-05-04T15:25:35.696Z,4.25
2018-05-04T15:28:01.871Z,4.15
2018-05-04T15:30:28.052Z,4.22
2018-05-04T15:32:54.220Z,4.10
2018-05-04T15:35:20.408Z,4.70
2018-05-04T15:37:46.590Z,4.30
2018-05-04T15:40:12.799Z,3.90
2018-05-04T15:42:39.712Z,4.28
2018-05-04T15:45:05.930Z,4.28
2018-05-04T15:47:32.137Z,4.10
2018-05-04T15:52:56.473Z,4.30
2018-05-04T15:55:22.727Z,4.45
2018-05-04T15:57:48.970Z,3.80
2018-05-04T16:00:15.182Z,3.53
2018-05-04T16:02:42.111Z,4.10
2018-05-04T16:05:08.293Z,4.12
2018-05-04T16:07:34.482Z,5.40
2018-05-04T16:10:00.748Z,5.22
2018-05-04T16:12:26.934Z,4.22
2018-05-04T16:14:53.129Z,4.22
2018-05-04T16:17:19.309Z,3.83
2018-05-04T16:19:45.486Z,4.60
2018-05-04T16:22:11.679Z,3.90
2018-05-04T16:24:37.849Z,4.05
2018-05-04T16:27:04.058Z,3.95
2018-05-04T16:29:30.269Z,4.20
2018-05-04T16:31:56.500Z,4.25
2018-05-04T16:34:22.751Z,3.83
2018-05-04T16:36:48.916Z,4.00
2018-05-04T16:39:15.894Z,3.90
2018-05-04T16:41:42.928Z,3.85
2018-05-04T16:44:09.031Z,4.07
2018-05-04T16:46:41.469Z,4.00
2018-05-04T16:49:26.612Z,5.00
2018-05-04T16:51:52.825Z,9.50
2018-05-04T16:54:19.027Z,12.30
2018-05-04T16:56:45.250Z,11.80
2018-05-04T16:59:11.433Z,8.20
2018-05-04T17:01:37.645Z,8.57
2018-05-04T17:04:03.841Z,5.40
2018-05-04T17:06:29.994Z,4.80
2018-05-04T17:08:56.193Z,4.43
2018-05-04T17:11:22.465Z,4.40
2018-05-04T17:13:48.559Z,4.22
2018-05-04T17:16:14.744Z,4.50
2018-05-04T17:18:40.898Z,4.70
2018-05-04T17:21:07.084Z,4.27
2018-05-04T17:23:33.267Z,4.57
2018-05-04T17:26:00.188Z,4.73
2018-05-04T17:28:26.373Z,4.40
2018-05-04T17:30:52.639Z,4.00
2018-05-04T17:33:18.830Z,4.27
2018-05-04T17:35:44.983Z,4.40
2018-05-04T17:38:11.172Z,4.53
2018-05-04T17:40:37.352Z,4.23
2018-05-04T17:43:03.588Z,4.07
2018-05-04T17:45:29.671Z,4.60
2018-05-04T17:47:55.830Z,4.37
2018-05-04T17:50:22.004Z,4.50
2018-05-04T17:52:48.162Z,4.13
2018-05-04T17:55:14.311Z,4.70
2018-05-04T17:57:40.462Z,4.00
2018-05-04T18:00:06.690Z,4.40
2018-05-04T18:02:32.858Z,4.13
2018-05-04T18:11:40.939Z,4.30
2018-05-04T18:14:07.121Z,4.20
2018-05-04T18:16:33.347Z,5.07
2018-05-04T18:18:59.556Z,4.27
2018-05-04T18:21:40.671Z,4.23
2018-05-04T18:24:06.851Z,4.20
2018-05-04T18:26:33.061Z,4.23
2018-05-04T18:28:59.215Z,5.13
2018-05-04T18:31:26.132Z,5.30
2018-05-04T18:33:53.007Z,5.13
2018-05-04T18:36:19.178Z,4.20
2018-05-04T18:38:45.415Z,4.47
2018-05-04T18:41:11.593Z,4.97
2018-05-04T18:43:37.823Z,4.37
2018-05-04T18:46:04.003Z,4.73
2018-05-04T18:48:30.220Z,4.40
2018-05-04T18:50:56.400Z,5.37
2018-05-04T18:53:22.566Z,5.13
2018-05-04T18:55:48.808Z,5.30
2018-05-04T18:58:15.020Z,4.63
2018-05-04T19:00:41.210Z,4.90
2018-05-04T19:03:13.490Z,4.60
2018-05-04T19:05:39.642Z,5.23
2018-05-04T19:08:05.955Z,4.60
2018-05-04T19:10:32.061Z,5.37
2018-05-04T19:12:58.242Z,5.43
2018-05-04T19:15:24.447Z,4.90
2018-05-04T19:17:50.660Z,5.30
2018-05-04T19:20:16.905Z,5.00
2018-05-04T19:22:43.074Z,4.90
2018-05-04T19:25:09.990Z,4.93
2018-05-04T19:27:36.187Z,5.10
2018-05-04T19:30:02.362Z,4.83
2018-05-04T19:32:28.518Z,5.47
2018-05-04T19:34:54.714Z,4.80
2018-05-04T19:37:20.926Z,4.80
2018-05-04T19:39:47.150Z,5.57
2018-05-04T19:42:13.322Z,5.17
2018-05-04T19:44:39.510Z,5.13
2018-05-04T19:47:05.719Z,5.17
2018-05-04T19:49:32.018Z,5.30
2018-05-04T19:51:58.334Z,4.93
2018-05-04T19:54:24.552Z,5.30
2018-05-04T19:56:51.100Z,5.00
2018-05-04T19:59:17.400Z,5.47
2018-05-04T20:01:44.379Z,5.47
2018-05-04T20:04:10.636Z,5.70
2018-05-04T20:06:36.903Z,5.30
2018-05-04T20:09:03.104Z,5.27
2018-05-04T20:11:29.288Z,5.00
2018-05-04T20:13:56.370Z,5.13
2018-05-04T20:16:22.560Z,5.00
2018-05-04T20:18:48.771Z,5.13
2018-05-04T20:21:14.953Z,5.10
2018-05-04T20:23:41.102Z,5.33
2018-05-04T20:26:07.263Z,5.10
2018-05-04T20:28:33.452Z,5.70
2018-05-04T20:30:59.603Z,4.80
2018-05-04T20:33:26.566Z,5.17
2018-05-04T20:35:52.802Z,5.30
2018-05-04T20:38:18.975Z,5.23
2018-05-04T20:40:45.145Z,5.27
2018-05-04T20:43:11.355Z,5.30
2018-05-04T20:45:37.526Z,5.10
2018-05-04T20:48:03.740Z,4.53
2018-05-04T20:50:29.905Z,5.40
2018-05-04T20:52:56.070Z,4.90
2018-05-04T20:55:22.251Z,4.97
2018-05-04T20:57:48.445Z,5.37
2018-05-04T21:00:14.619Z,4.70
2018-05-04T21:02:40.810Z,4.97
2018-05-04T21:05:07.733Z,4.40
2018-05-04T21:07:33.904Z,4.47
2018-05-04T21:10:00.111Z,4.33
2018-05-04T21:12:26.314Z,3.63
2018-05-04T21:14:52.466Z,3.60
2018-05-04T21:17:18.635Z,4.00
2018-05-04T21:19:44.806Z,4.00
2018-05-04T21:22:10.973Z,4.30
2018-05-04T21:24:37.125Z,4.50
2018-05-04T21:27:03.438Z,3.80
2018-05-04T21:29:29.602Z,3.67
2018-05-04T21:31:55.758Z,4.07
2018-05-04T21:34:21.911Z,3.50
2018-05-04T21:36:48.120Z,3.60
2018-05-04T21:39:14.375Z,3.47
2018-05-04T21:41:40.526Z,3.33
2018-05-04T21:44:06.697Z,3.30
2018-05-04T21:46:33.071Z,3.00
2018-05-04T21:48:59.290Z,3.07
2018-05-04T21:51:25.466Z,3.00
2018-05-04T21:53:51.630Z,3.33
2018-05-04T21:56:17.781Z,3.60
2018-05-04T21:58:43.938Z,3.37
2018-05-04T22:01:10.097Z,3.40
2018-05-04T22:03:36.253Z,3.47
2018-05-04T22:06:02.513Z,3.57
2018-05-04T22:08:28.770Z,3.27
2018-05-04T22:10:54.983Z,3.63
2018-05-04T22:13:21.216Z,2.87
2018-05-04T22:15:47.420Z,3.30
2018-05-04T22:18:14.338Z,3.40
2018-05-04T22:20:40.514Z,3.60
2018-05-04T22:23:06.719Z,3.73
2018-05-04T22:25:32.942Z,3.60
2018-05-04T22:27:59.839Z,3.87
2018-05-04T22:30:26.099Z,3.17
2018-05-04T22:32:52.296Z,3.17
2018-05-04T22:35:18.498Z,3.70
2018-05-04T22:37:44.662Z,3.13
2018-05-04T22:40:10.837Z,3.47
2018-05-04T22:42:37.093Z,3.50
2018-05-04T22:45:03.314Z,3.50
2018-05-04T22:47:29.530Z,3.67
2018-05-04T22:49:55.759Z,3.03
2018-05-04T22:52:21.942Z,3.87
2018-05-04T22:54:48.900Z,3.83
2018-05-04T22:57:15.073Z,4.07
2018-05-04T22:59:41.278Z,3.67
2018-05-04T23:02:08.156Z,3.27
2018-05-04T23:04:34.355Z,3.40
2018-05-04T23:07:00.557Z,3.60
2018-05-04T23:09:26.712Z,3.70
2018-05-04T23:11:53.619Z,3.10
2018-05-04T23:14:19.784Z,3.53
2018-05-04T23:16:46.041Z,3.53
2018-05-04T23:19:12.979Z,3.40
2018-05-04T23:21:39.891Z,3.80
2018-05-04T23:24:06.077Z,3.37
2018-05-04T23:26:32.233Z,3.80
2018-05-04T23:28:58.395Z,3.67
2018-05-04T23:31:24.580Z,3.33
2018-05-04T23:33:51.504Z,3.20
2018-05-04T23:36:18.432Z,3.40
2018-05-04T23:38:44.671Z,3.87
2018-05-04T23:41:10.839Z,3.33
2018-05-04T23:43:37.011Z,3.60
2018-05-04T23:46:03.173Z,3.70
2018-05-04T23:48:29.453Z,3.70
2018-05-04T23:50:55.646Z,3.53
2018-05-04T23:53:21.834Z,3.77
2018-05-04T23:55:48.032Z,3.47
2018-05-04T23:58:14.213Z,3.20
